Flag for Germany

Past Weather in Karlsruhe, Baden-Württemberg, Germany — Yesterday and Last 2 Weeks

Currently: 32 °F. Light snow. Ice fog. (Weather station: Karlsruhe - Baden Wurttemberg, Germany). See more current weather

Past Weather in Karlsruhe — Graph

°F

Karlsruhe Temperature Yesterday

Maximum temperature yesterday: 41 °F (at 3:20 pm)
Minimum temperature yesterday: 30 °F (at 12:50 am)
Average temperature yesterday: 36 °F

High & Low Weather Summary for the Past Weeks

 TemperatureHumidityPressure
High55 °F (Jan 22, 11:20 am)100% (Jan 12, 11:50 am)30.39 "Hg (Jan 12, 11:50 am)
Low25 °F (Jan 16, 1:50 am)44% (Jan 21, 4:50 am)29.33 "Hg (Jan 22, 6:20 am)
Average37 °F82%29.90 "Hg
* Reported Jan 12 9:20 am — Jan 27 9:50 am, Karlsruhe. Weather by CustomWeather, © 2021

Note: Actual official high and low records may vary slightly from our data, if they occured in-between our weather recording intervals... More about our weather records

Karlsruhe Weather History for the Previous 24 Hours

Scroll right to see more
 ConditionsComfort  
Time TempWeatherWind HumidityBarometerVisibility
9:50 am
Wed, Jan 27
32 °FSnow. Cloudy.13 mph93%30.04 "Hg1 mi
9:20 am32 °FSnow flurries. Ice fog.15 mph87%30.04 "Hg1 mi
8:50 am36 °FOvercast.9 mph70%30.04 "HgN/A
8:20 am34 °FOvercast.8 mph75%30.04 "HgN/A
7:50 am34 °FClear.10 mph81%30.04 "Hg10 mi
6:50 am34 °FClear.7 mph81%30.04 "Hg10 mi
6:20 am34 °FClear.7 mph81%30.04 "Hg10 mi
5:50 am34 °FClear.6 mph81%30.07 "Hg10 mi
5:20 am32 °FClear.6 mph93%30.07 "Hg10 mi
4:50 am32 °FClear.3 mph87%30.09 "Hg10 mi
4:20 am30 °FPassing clouds.5 mph93%30.09 "HgN/A
3:50 am32 °FPartly cloudy.5 mph87%30.09 "HgN/A
3:20 am32 °FPassing clouds.5 mph87%30.09 "HgN/A
2:50 am32 °FPassing clouds.5 mph87%30.09 "HgN/A
2:20 am32 °FPassing clouds.6 mph87%30.12 "HgN/A
1:50 am30 °FPassing clouds.8 mph80%30.12 "HgN/A
1:20 am30 °FPassing clouds.8 mph93%30.12 "HgN/A
12:50 am32 °FPassing clouds.7 mph87%30.15 "HgN/A
12:20 am32 °FPassing clouds.8 mph87%30.15 "HgN/A
11:50 pm
Tue, Jan 26
32 °FPassing clouds.8 mph87%30.18 "HgN/A
11:20 pm34 °FPartly cloudy.7 mph81%30.18 "HgN/A
10:50 pm36 °FOvercast.9 mph81%30.18 "HgN/A
10:20 pm36 °FClear.8 mph81%30.18 "Hg10 mi
9:50 pm36 °FPassing clouds.8 mph75%30.18 "HgN/A
9:20 pm36 °FPassing clouds.6 mph75%30.18 "HgN/A
8:50 pm36 °FPassing clouds.8 mph81%30.18 "HgN/A
8:20 pm37 °FMostly cloudy.8 mph75%30.18 "HgN/A
7:50 pm36 °FPassing clouds.7 mph81%30.18 "HgN/A
7:20 pm36 °FClear.8 mph81%30.18 "Hg10 mi
6:50 pm37 °FClear.8 mph75%30.18 "Hg10 mi
6:20 pm37 °FPassing clouds.8 mph75%30.18 "HgN/A
5:50 pm37 °FPassing clouds.8 mph75%30.18 "HgN/A
5:20 pm39 °FPassing clouds.8 mph70%30.15 "HgN/A
4:50 pm39 °FPartly sunny.7 mph70%30.15 "HgN/A
4:20 pm39 °FPartly sunny.10 mph70%30.15 "HgN/A
3:50 pm39 °FPartly sunny.13 mph65%30.15 "HgN/A
3:20 pm41 °FPartly sunny.10 mph61%30.15 "HgN/A
2:50 pm39 °FPassing clouds.10 mph65%30.15 "HgN/A
2:20 pm39 °FPassing clouds.13 mph70%30.15 "HgN/A
1:50 pm39 °FPassing clouds.15 mph65%30.15 "HgN/A
1:20 pm39 °FScattered clouds.10 mph70%30.15 "HgN/A
12:50 pm39 °FScattered clouds.14 mph70%30.15 "HgN/A
12:20 pm39 °FPartly sunny.12 mph65%30.15 "HgN/A
11:50 am37 °FScattered clouds.15 mph81%30.15 "HgN/A
11:20 am36 °FPartly sunny.9 mph87%30.15 "HgN/A
Weather by CustomWeather, © 2021

See weather overview